createdAt,value
2023-05-15T00:00:16.117Z,37.10
2023-05-15T00:02:42.940Z,37.30
2023-05-15T00:05:09.788Z,37.30
2023-05-15T00:07:37.632Z,37.30
2023-05-15T00:10:05.184Z,37.50
2023-05-15T00:12:33.188Z,37.20
2023-05-15T00:14:59.861Z,37.50
2023-05-15T00:17:26.528Z,37.40
2023-05-15T00:19:54.290Z,37.60
2023-05-15T00:22:20.974Z,37.50
2023-05-15T00:24:47.617Z,37.60
2023-05-15T00:27:14.308Z,37.60
2023-05-15T00:29:42.513Z,37.70
2023-05-15T00:32:09.256Z,37.90
2023-05-15T00:34:35.891Z,37.50
2023-05-15T00:37:02.555Z,37.50
2023-05-15T00:39:29.297Z,37.70
2023-05-15T00:41:57.040Z,37.80
2023-05-15T00:44:25.130Z,38.20
2023-05-15T00:46:54.402Z,38.10
2023-05-15T00:49:22.404Z,38.00
2023-05-15T00:51:50.042Z,38.00
2023-05-15T00:54:16.737Z,37.80
2023-05-15T00:56:44.744Z,38.00
2023-05-15T00:59:12.880Z,38.40
2023-05-15T01:01:39.801Z,38.00
2023-05-15T01:04:07.838Z,38.00
2023-05-15T01:06:34.525Z,38.20
2023-05-15T01:09:02.623Z,38.10
2023-05-15T01:11:29.574Z,38.10
2023-05-15T01:13:56.325Z,38.00
2023-05-15T01:16:23.011Z,38.40
2023-05-15T01:18:49.732Z,38.10
2023-05-15T01:21:52.881Z,38.00
2023-05-15T01:24:54.040Z,38.10
2023-05-15T01:27:26.280Z,38.30
2023-05-15T01:30:04.599Z,38.80
2023-05-15T01:32:38.732Z,39.00
2023-05-15T01:35:12.118Z,39.30
2023-05-15T01:37:44.273Z,38.60
2023-05-15T01:40:13.599Z,38.50
2023-05-15T01:42:46.514Z,38.30
2023-05-15T01:45:13.891Z,38.40
2023-05-15T01:47:44.185Z,38.30
2023-05-15T01:50:14.822Z,38.30
2023-05-15T01:52:44.992Z,38.40
2023-05-15T01:55:13.486Z,38.50
2023-05-15T01:57:42.950Z,38.60
2023-05-15T02:00:11.398Z,38.50
2023-05-15T02:02:38.377Z,38.60
2023-05-15T02:05:07.336Z,38.30
2023-05-15T02:07:34.692Z,38.50
2023-05-15T02:10:02.939Z,38.50
2023-05-15T02:12:30.608Z,38.60
2023-05-15T02:14:59.210Z,38.70
2023-05-15T02:17:26.734Z,38.40
2023-05-15T02:19:53.413Z,38.40
2023-05-15T02:22:20.089Z,38.40
2023-05-15T02:24:46.740Z,38.10
2023-05-15T02:27:20.676Z,38.00
2023-05-15T02:29:59.577Z,38.20
2023-05-15T02:32:34.873Z,38.10
2023-05-15T02:35:10.599Z,38.30
2023-05-15T02:37:39.410Z,39.00
2023-05-15T02:40:09.770Z,38.40
2023-05-15T02:42:37.019Z,38.50
2023-05-15T02:45:05.273Z,38.40
2023-05-15T02:47:34.376Z,38.50
2023-05-15T02:50:02.409Z,38.60
2023-05-15T02:52:29.082Z,38.40
2023-05-15T02:54:55.879Z,38.30
2023-05-15T02:57:22.507Z,38.30
2023-05-15T02:59:49.164Z,38.30
2023-05-15T03:02:15.830Z,38.30
2023-05-15T03:04:43.971Z,38.20
2023-05-15T03:07:10.664Z,38.40
2023-05-15T03:09:37.321Z,38.40
2023-05-15T03:12:04.331Z,38.40
2023-05-15T03:14:30.990Z,38.40
2023-05-15T03:16:57.702Z,38.50
2023-05-15T03:19:24.472Z,38.50
2023-05-15T03:21:52.634Z,39.20
2023-05-15T03:24:19.284Z,38.50
2023-05-15T03:26:45.944Z,38.40
2023-05-15T03:29:13.238Z,38.50
2023-05-15T03:31:39.908Z,38.30
2023-05-15T03:34:06.658Z,38.50
2023-05-15T03:36:33.349Z,38.50
2023-05-15T03:39:01.429Z,38.00
2023-05-15T03:41:28.116Z,38.20
2023-05-15T03:43:54.827Z,38.40
2023-05-15T03:46:21.553Z,38.40
2023-05-15T03:48:48.284Z,38.50
2023-05-15T03:51:15.023Z,38.40
2023-05-15T03:53:41.728Z,38.30
2023-05-15T03:56:09.928Z,38.60
2023-05-15T03:58:36.593Z,38.50
2023-05-15T04:01:03.260Z,38.40
2023-05-15T04:03:29.959Z,38.60
2023-05-15T04:05:56.652Z,38.90
2023-05-15T04:08:23.305Z,39.40
2023-05-15T04:10:50.041Z,39.30
2023-05-15T04:13:18.030Z,39.50
2023-05-15T04:15:44.761Z,39.80
2023-05-15T04:18:11.401Z,39.70
2023-05-15T04:20:38.082Z,39.10
2023-05-15T04:23:04.769Z,39.00
2023-05-15T04:25:31.746Z,39.20
2023-05-15T04:27:58.491Z,39.90
2023-05-15T04:30:26.540Z,40.10
2023-05-15T04:32:53.296Z,39.60
2023-05-15T04:35:20.097Z,39.60
2023-05-15T04:37:46.760Z,40.40
2023-05-15T04:40:13.784Z,40.70
2023-05-15T04:42:40.510Z,40.90
2023-05-15T04:45:08.415Z,41.90
2023-05-15T04:47:36.679Z,43.00
2023-05-15T04:50:03.871Z,41.90
2023-05-15T04:52:30.619Z,41.20
2023-05-15T04:54:57.295Z,40.50
2023-05-15T04:57:24.014Z,41.10
2023-05-15T04:59:50.701Z,42.00
2023-05-15T05:02:20.568Z,43.00
2023-05-15T05:04:48.729Z,45.40
2023-05-15T05:07:15.466Z,45.70
2023-05-15T05:09:42.817Z,45.60
2023-05-15T05:12:09.727Z,45.00
2023-05-15T05:14:36.651Z,44.50
2023-05-15T05:17:03.629Z,45.80
2023-05-15T05:19:30.275Z,44.90
2023-05-15T05:21:58.592Z,44.90
2023-05-15T05:24:25.477Z,45.20
2023-05-15T05:26:52.169Z,45.80
2023-05-15T05:29:18.810Z,45.70
2023-05-15T05:31:46.898Z,45.90
2023-05-15T05:34:13.734Z,46.50
2023-05-15T05:36:40.544Z,45.60
2023-05-15T05:39:08.545Z,44.60
2023-05-15T05:41:35.516Z,45.40
2023-05-15T05:44:02.182Z,45.40
2023-05-15T05:46:29.377Z,45.50
2023-05-15T05:48:56.131Z,45.40
2023-05-15T05:51:22.798Z,45.10
2023-05-15T05:53:49.473Z,44.60
2023-05-15T05:56:17.524Z,44.40
2023-05-15T05:58:44.214Z,44.20
2023-05-15T06:01:11.200Z,44.00
2023-05-15T06:03:39.152Z,43.50
2023-05-15T06:06:06.307Z,44.30
2023-05-15T06:08:32.945Z,43.30
2023-05-15T06:10:59.621Z,43.40
2023-05-15T06:13:27.675Z,43.20
2023-05-15T06:15:58.734Z,43.70
2023-05-15T06:19:16.758Z,42.70
2023-05-15T06:21:34.040Z,43.20
2023-05-15T06:24:01.120Z,43.00
2023-05-15T06:26:28.073Z,43.30
2023-05-15T06:28:56.084Z,43.40
2023-05-15T06:31:22.857Z,43.70
2023-05-15T06:33:49.602Z,43.90
2023-05-15T06:36:16.818Z,44.00
2023-05-15T06:38:43.475Z,44.30
2023-05-15T06:41:10.159Z,44.00
2023-05-15T06:43:38.373Z,44.00
2023-05-15T06:46:06.636Z,43.90
2023-05-15T06:48:33.368Z,44.10
2023-05-15T06:51:00.128Z,44.20
2023-05-15T06:53:26.835Z,44.40
2023-05-15T06:55:53.556Z,44.00
2023-05-15T06:58:20.313Z,44.10
2023-05-15T07:00:46.981Z,43.70
2023-05-15T07:03:15.074Z,43.70
2023-05-15T07:05:41.744Z,43.30
2023-05-15T07:08:08.444Z,43.80
2023-05-15T07:10:35.128Z,44.30
2023-05-15T07:13:01.842Z,43.90
2023-05-15T07:15:28.623Z,44.40
2023-05-15T07:17:55.420Z,43.90
2023-05-15T07:20:25.905Z,43.60
2023-05-15T07:22:56.776Z,43.80
2023-05-15T07:25:24.471Z,44.90
2023-05-15T07:27:51.605Z,44.10
2023-05-15T07:30:18.669Z,44.00
2023-05-15T07:32:45.416Z,43.70
2023-05-15T07:35:12.205Z,43.70
2023-05-15T07:37:40.570Z,43.60
2023-05-15T07:40:08.259Z,43.30
2023-05-15T07:42:34.908Z,43.50
2023-05-15T07:45:01.751Z,43.50
2023-05-15T07:47:28.478Z,43.10
2023-05-15T07:49:55.520Z,43.00
2023-05-15T07:52:22.212Z,42.70
2023-05-15T07:54:50.189Z,42.70
2023-05-15T07:57:16.845Z,42.90
2023-05-15T07:59:43.628Z,42.90
2023-05-15T08:02:10.314Z,43.30
2023-05-15T08:04:37.041Z,43.10
2023-05-15T08:07:04.143Z,43.20
2023-05-15T08:09:30.808Z,43.70
2023-05-15T08:12:14.736Z,42.70
2023-05-15T08:14:41.456Z,42.50
2023-05-15T08:17:08.159Z,42.50
2023-05-15T08:19:34.826Z,42.20
2023-05-15T08:22:01.471Z,42.80
2023-05-15T08:24:28.229Z,42.40
2023-05-15T08:26:54.895Z,41.60
2023-05-15T08:29:22.980Z,41.20
2023-05-15T08:31:49.817Z,41.00
2023-05-15T08:34:16.505Z,41.10
2023-05-15T08:36:43.231Z,41.10
2023-05-15T08:39:09.905Z,40.90
2023-05-15T08:41:56.250Z,40.30
2023-05-15T08:44:24.543Z,40.10
2023-05-15T08:46:52.982Z,39.90
2023-05-15T08:49:24.901Z,40.00
2023-05-15T08:51:52.049Z,40.10
2023-05-15T08:54:18.935Z,39.60
2023-05-15T08:56:45.701Z,39.90
2023-05-15T08:59:12.708Z,39.90
2023-05-15T09:01:40.741Z,39.80
2023-05-15T09:04:07.505Z,39.90
2023-05-15T09:06:34.367Z,39.80
2023-05-15T09:09:01.701Z,39.20
2023-05-15T09:11:29.887Z,39.50
2023-05-15T09:13:58.536Z,39.60
2023-05-15T09:16:25.314Z,39.40
2023-05-15T09:18:54.166Z,39.00
2023-05-15T09:21:24.709Z,39.30
2023-05-15T09:23:51.429Z,39.20
2023-05-15T09:26:18.080Z,38.70
2023-05-15T09:28:44.887Z,37.90
2023-05-15T09:31:11.581Z,37.40
2023-05-15T09:33:40.175Z,36.70
2023-05-15T09:36:09.402Z,36.90
2023-05-15T09:38:40.969Z,36.80
2023-05-15T09:41:08.656Z,37.20
2023-05-15T09:43:37.456Z,37.30
2023-05-15T09:46:04.716Z,35.40
2023-05-15T09:48:31.951Z,36.20
2023-05-15T09:51:01.501Z,36.50
2023-05-15T09:53:29.822Z,36.00
2023-05-15T09:55:56.735Z,36.30
2023-05-15T09:58:23.710Z,35.20
2023-05-15T10:00:50.492Z,34.80
2023-05-15T10:03:18.670Z,35.30
2023-05-15T10:05:45.430Z,35.10
2023-05-15T10:08:12.149Z,34.80
2023-05-15T10:10:40.554Z,35.10
2023-05-15T10:13:09.298Z,34.70
2023-05-15T10:15:38.882Z,35.00
2023-05-15T10:18:06.306Z,35.90
2023-05-15T10:20:33.471Z,35.30
2023-05-15T10:23:03.010Z,34.70
2023-05-15T10:25:35.639Z,34.40
2023-05-15T10:28:04.628Z,34.10
2023-05-15T10:30:32.078Z,33.00
2023-05-15T10:33:00.308Z,33.00
2023-05-15T10:35:27.830Z,32.40
2023-05-15T10:37:54.589Z,32.60
2023-05-15T10:40:21.913Z,31.60
2023-05-15T10:42:48.830Z,32.50
2023-05-15T10:45:16.888Z,31.10
2023-05-15T10:47:44.461Z,31.50
2023-05-15T10:50:12.879Z,32.20
2023-05-15T10:52:40.130Z,31.40
2023-05-15T10:55:08.245Z,31.10
2023-05-15T10:57:36.064Z,30.70
2023-05-15T11:00:02.890Z,30.20
2023-05-15T11:02:31.013Z,31.20
2023-05-15T11:04:59.457Z,31.00
2023-05-15T11:07:27.361Z,31.20
2023-05-15T11:09:54.674Z,31.00
2023-05-15T11:12:21.893Z,30.70
2023-05-15T11:15:27.918Z,30.90
2023-05-15T11:18:07.250Z,31.00
2023-05-15T11:20:37.894Z,31.20
2023-05-15T11:23:04.604Z,30.70
2023-05-15T11:25:31.849Z,30.60
2023-05-15T11:27:58.627Z,30.80
2023-05-15T11:30:36.279Z,30.10
2023-05-15T11:33:06.611Z,30.20
2023-05-15T11:35:35.208Z,29.60
2023-05-15T11:38:04.554Z,29.90
2023-05-15T11:40:32.714Z,30.20
2023-05-15T11:43:01.717Z,29.40
2023-05-15T11:45:30.370Z,29.70
2023-05-15T11:47:58.148Z,29.40
2023-05-15T11:50:27.293Z,29.70
2023-05-15T11:52:54.899Z,28.90
2023-05-15T11:55:22.264Z,29.20
2023-05-15T11:57:49.063Z,29.50
2023-05-15T12:00:16.335Z,28.70
2023-05-15T12:02:43.111Z,29.30
2023-05-15T12:05:10.824Z,29.50
2023-05-15T12:07:40.919Z,30.10
2023-05-15T12:10:10.463Z,29.00
2023-05-15T12:12:39.728Z,29.60
2023-05-15T12:15:09.414Z,30.10
2023-05-15T12:17:37.681Z,30.10
2023-05-15T12:20:07.309Z,29.70
2023-05-15T12:22:38.725Z,30.50
2023-05-15T12:28:09.282Z,30.00
2023-05-15T12:30:36.275Z,30.50
2023-05-15T12:33:04.421Z,30.10
2023-05-15T12:35:33.341Z,30.60
2023-05-15T12:38:01.121Z,30.20
2023-05-15T12:40:29.363Z,30.30
2023-05-15T12:42:56.098Z,31.00
2023-05-15T12:45:23.217Z,30.30
2023-05-15T12:47:50.859Z,30.60
2023-05-15T12:50:19.383Z,30.60
2023-05-15T12:52:52.930Z,29.80
2023-05-15T12:55:24.311Z,30.00
2023-05-15T12:57:52.686Z,29.40
2023-05-15T13:00:21.526Z,29.00
2023-05-15T13:02:49.679Z,28.80
2023-05-15T13:05:16.778Z,29.00
2023-05-15T13:07:44.084Z,28.40
2023-05-15T13:10:12.049Z,27.60
2023-05-15T13:12:40.397Z,29.00
2023-05-15T13:15:22.466Z,28.80
2023-05-15T13:17:51.774Z,28.60
2023-05-15T13:20:18.567Z,28.90
2023-05-15T13:22:45.192Z,28.70
2023-05-15T13:25:11.858Z,28.40
2023-05-15T13:27:38.500Z,28.70
2023-05-15T13:30:07.004Z,28.70
2023-05-15T13:32:35.092Z,29.20
2023-05-15T13:35:01.756Z,27.90
2023-05-15T13:37:28.516Z,28.20
2023-05-15T13:39:55.167Z,28.20
2023-05-15T13:42:21.873Z,28.20
2023-05-15T13:44:48.566Z,27.40
2023-05-15T13:47:15.397Z,28.00
2023-05-15T13:49:43.503Z,26.80
2023-05-15T13:52:10.241Z,26.30
2023-05-15T13:54:36.913Z,26.80
2023-05-15T13:57:03.906Z,26.60
2023-05-15T13:59:30.551Z,27.80
2023-05-15T14:01:57.173Z,27.90
2023-05-15T14:04:24.221Z,28.70
2023-05-15T14:06:52.335Z,28.50
2023-05-15T14:09:19.106Z,28.90
2023-05-15T14:11:45.741Z,28.30
2023-05-15T14:14:12.486Z,27.90
2023-05-15T14:16:39.215Z,27.80
2023-05-15T14:19:05.978Z,28.50
2023-05-15T14:21:32.663Z,28.60
2023-05-15T14:24:00.696Z,28.80
2023-05-15T14:26:27.613Z,27.90
2023-05-15T14:28:54.324Z,27.90
2023-05-15T14:31:21.002Z,28.40
2023-05-15T14:33:49.056Z,28.50
2023-05-15T14:36:16.638Z,29.80
2023-05-15T14:38:43.326Z,30.30
2023-05-15T14:41:11.443Z,31.10
2023-05-15T14:43:39.564Z,30.90
2023-05-15T14:46:06.345Z,30.90
2023-05-15T14:48:33.607Z,30.50
2023-05-15T14:51:00.589Z,30.40
2023-05-15T14:53:27.414Z,30.30
2023-05-15T14:55:55.053Z,30.00
2023-05-15T14:58:23.018Z,30.00
2023-05-15T15:00:49.689Z,30.40
2023-05-15T15:03:16.476Z,30.90
2023-05-15T15:05:44.569Z,30.50
2023-05-15T15:08:11.221Z,30.80
2023-05-15T15:10:39.732Z,31.00
2023-05-15T15:13:07.531Z,31.60
2023-05-15T15:15:40.598Z,31.30
2023-05-15T15:18:07.603Z,31.40
2023-05-15T15:20:34.656Z,30.60
2023-05-15T15:23:02.914Z,30.80
2023-05-15T15:25:32.173Z,31.40
2023-05-15T15:27:59.500Z,31.60
2023-05-15T15:30:26.457Z,31.10
2023-05-15T15:32:54.703Z,31.30
2023-05-15T15:35:21.671Z,32.00
2023-05-15T15:37:48.310Z,31.20
2023-05-15T15:40:15.049Z,31.40
2023-05-15T15:42:41.684Z,30.70
2023-05-15T15:45:09.890Z,30.60
2023-05-15T15:47:36.779Z,29.70
2023-05-15T15:50:05.700Z,29.30
2023-05-15T15:52:32.404Z,30.30
2023-05-15T15:54:59.064Z,30.10
2023-05-15T15:57:28.019Z,29.90
2023-05-15T15:59:54.661Z,30.00
2023-05-15T16:02:21.344Z,30.00
2023-05-15T16:04:48.038Z,30.00
2023-05-15T16:07:16.099Z,30.50
2023-05-15T16:09:44.720Z,33.00
2023-05-15T16:12:11.373Z,31.20
2023-05-15T16:14:38.079Z,30.20
2023-05-15T16:17:05.067Z,29.50
2023-05-15T16:19:31.816Z,30.00
2023-05-15T16:21:58.551Z,29.80
2023-05-15T16:24:26.595Z,30.00
2023-05-15T16:26:53.312Z,30.00
2023-05-15T16:29:19.997Z,30.30
2023-05-15T16:31:46.950Z,30.80
2023-05-15T16:34:14.421Z,30.60
2023-05-15T16:36:41.094Z,30.70
2023-05-15T16:39:07.777Z,31.10
2023-05-15T16:41:35.943Z,30.80
2023-05-15T16:44:02.639Z,31.00
2023-05-15T16:46:29.353Z,31.10
2023-05-15T16:48:56.120Z,31.10
2023-05-15T16:51:22.830Z,30.80
2023-05-15T16:53:49.518Z,31.30
2023-05-15T16:56:16.171Z,31.70
2023-05-15T16:58:44.156Z,31.50
2023-05-15T17:01:10.880Z,31.80
2023-05-15T17:03:37.767Z,31.90
2023-05-15T17:06:04.610Z,31.60
2023-05-15T17:08:31.299Z,31.70
2023-05-15T17:10:58.650Z,31.20
2023-05-15T17:13:27.557Z,31.20
2023-05-15T17:15:55.870Z,31.00
2023-05-15T17:18:22.546Z,30.70
2023-05-15T17:20:49.189Z,30.90
2023-05-15T17:23:15.866Z,30.90
2023-05-15T17:25:42.551Z,31.20
2023-05-15T17:28:09.215Z,31.70
2023-05-15T17:30:35.916Z,32.40
2023-05-15T17:33:04.121Z,32.70
2023-05-15T17:35:32.986Z,33.30
2023-05-15T17:38:00.014Z,33.60
2023-05-15T17:40:26.674Z,34.00
2023-05-15T17:42:53.337Z,34.10
2023-05-15T17:45:20.507Z,34.30
2023-05-15T17:47:47.170Z,34.40
2023-05-15T17:50:15.417Z,34.60
2023-05-15T17:52:42.057Z,34.60
2023-05-15T17:55:09.516Z,34.70
2023-05-15T17:57:36.230Z,34.70
2023-05-15T18:00:03.104Z,34.90
2023-05-15T18:02:29.754Z,34.90
2023-05-15T18:04:56.460Z,35.00
2023-05-15T18:07:24.499Z,35.10
2023-05-15T18:09:51.170Z,35.40
2023-05-15T18:12:17.953Z,35.40
2023-05-15T18:14:44.594Z,35.50
2023-05-15T18:17:11.274Z,35.60
2023-05-15T18:19:37.905Z,35.80
2023-05-15T18:22:05.026Z,35.70
2023-05-15T18:24:33.032Z,35.70
2023-05-15T18:26:59.703Z,35.80
2023-05-15T18:29:26.388Z,35.80
2023-05-15T18:31:53.141Z,36.10
2023-05-15T18:34:19.927Z,36.30
2023-05-15T18:36:46.594Z,36.20
2023-05-15T18:39:13.312Z,36.50
2023-05-15T18:41:41.320Z,36.80
2023-05-15T18:44:07.998Z,36.90
2023-05-15T18:46:34.693Z,36.90
2023-05-15T18:49:01.445Z,37.10
2023-05-15T18:51:28.127Z,37.00
2023-05-15T18:53:54.790Z,37.10
2023-05-15T18:56:21.496Z,37.10
2023-05-15T18:58:49.496Z,37.40
2023-05-15T19:01:16.201Z,37.40
2023-05-15T19:03:43.153Z,37.30
2023-05-15T19:06:09.919Z,37.20
2023-05-15T19:08:36.591Z,37.30
2023-05-15T19:11:03.335Z,37.40
2023-05-15T19:13:30.163Z,37.50
2023-05-15T19:15:58.184Z,37.40
2023-05-15T19:18:24.850Z,37.50
2023-05-15T19:20:51.485Z,37.40
2023-05-15T19:23:18.473Z,37.40
2023-05-15T19:25:45.189Z,37.40
2023-05-15T19:28:11.978Z,37.40
2023-05-15T19:30:38.609Z,37.50
2023-05-15T19:33:06.628Z,37.70
2023-05-15T19:35:35.862Z,37.80
2023-05-15T19:38:03.949Z,37.90
2023-05-15T19:40:30.610Z,37.80
2023-05-15T19:42:57.296Z,37.80
2023-05-15T19:45:24.020Z,37.60
2023-05-15T19:47:50.721Z,37.50
2023-05-15T19:50:18.756Z,37.50
2023-05-15T19:52:45.703Z,37.60
2023-05-15T19:55:12.693Z,37.50
2023-05-15T19:57:39.506Z,37.50
2023-05-15T20:00:07.625Z,37.60
2023-05-15T20:02:34.390Z,37.70
2023-05-15T20:05:01.197Z,37.70
2023-05-15T20:07:29.254Z,37.80
2023-05-15T20:09:55.949Z,37.90
2023-05-15T20:12:22.662Z,38.10
2023-05-15T20:14:49.516Z,38.40
2023-05-15T20:17:16.995Z,38.80
2023-05-15T20:19:44.060Z,39.10
2023-05-15T20:22:10.725Z,39.30
2023-05-15T20:24:38.724Z,39.40
2023-05-15T20:27:09.008Z,39.70
2023-05-15T20:29:35.682Z,39.70
2023-05-15T20:32:03.369Z,39.80
2023-05-15T20:34:30.085Z,39.50
2023-05-15T20:36:56.821Z,39.60
2023-05-15T20:39:23.485Z,39.60
2023-05-15T20:41:51.469Z,39.70
2023-05-15T20:44:18.132Z,39.60
2023-05-15T20:46:44.862Z,39.60
2023-05-15T20:49:11.649Z,39.80
2023-05-15T20:51:38.334Z,39.80
2023-05-15T20:54:05.050Z,40.00
2023-05-15T20:56:31.715Z,39.90
2023-05-15T20:59:00.010Z,40.10
2023-05-15T21:01:26.763Z,40.10
2023-05-15T21:03:53.437Z,39.90
2023-05-15T21:06:20.326Z,40.00
2023-05-15T21:08:46.977Z,40.00
2023-05-15T21:11:13.814Z,40.20
2023-05-15T21:13:40.546Z,40.20
2023-05-15T21:16:08.704Z,39.70
2023-05-15T21:18:35.394Z,40.00
2023-05-15T21:21:02.256Z,40.00
2023-05-15T21:23:28.976Z,39.70
2023-05-15T21:25:55.646Z,39.80
2023-05-15T21:28:22.293Z,39.50
2023-05-15T21:30:49.012Z,39.60
2023-05-15T21:33:17.048Z,39.60
2023-05-15T21:35:43.684Z,40.40
2023-05-15T21:38:10.373Z,39.60
2023-05-15T21:40:37.104Z,39.80
2023-05-15T21:43:03.751Z,39.90
2023-05-15T21:45:30.616Z,40.20
2023-05-15T21:47:57.333Z,40.10
2023-05-15T21:50:25.694Z,40.50
2023-05-15T21:52:52.512Z,40.60
2023-05-15T21:55:19.415Z,40.80
2023-05-15T21:57:46.124Z,40.60
2023-05-15T22:00:13.361Z,41.80
2023-05-15T22:02:40.136Z,42.40
2023-05-15T22:05:07.455Z,42.60
2023-05-15T22:07:35.439Z,43.50
2023-05-15T22:10:02.119Z,43.80
2023-05-15T22:12:28.804Z,44.00
2023-05-15T22:14:59.047Z,43.70
2023-05-15T22:17:26.858Z,44.10
2023-05-15T22:19:53.846Z,44.20
2023-05-15T22:22:20.967Z,43.70
2023-05-15T22:24:49.004Z,43.50
2023-05-15T22:27:15.653Z,43.30
2023-05-15T22:29:42.383Z,43.50
2023-05-15T22:32:09.068Z,43.50
2023-05-15T22:34:35.758Z,43.40
2023-05-15T22:37:02.435Z,43.50
2023-05-15T22:39:29.111Z,43.70
2023-05-15T22:41:57.064Z,43.70
2023-05-15T22:44:23.846Z,43.40
2023-05-15T22:46:50.521Z,43.80
2023-05-15T22:49:17.158Z,43.20
2023-05-15T22:51:43.832Z,42.80
2023-05-15T22:54:10.526Z,42.40
2023-05-15T22:56:37.190Z,42.30
2023-05-15T22:59:05.281Z,42.20
2023-05-15T23:01:32.103Z,42.30
2023-05-15T23:03:58.865Z,42.40
2023-05-15T23:06:25.573Z,42.30
2023-05-15T23:08:52.256Z,42.50
2023-05-15T23:11:18.925Z,42.60
2023-05-15T23:13:45.596Z,43.50
2023-05-15T23:16:13.669Z,43.00
2023-05-15T23:18:40.373Z,43.10
2023-05-15T23:21:07.114Z,43.00
2023-05-15T23:23:33.782Z,43.00
2023-05-15T23:26:00.459Z,43.10
2023-05-15T23:28:27.122Z,43.00
2023-05-15T23:30:54.159Z,42.80
2023-05-15T23:33:22.314Z,43.30
2023-05-15T23:35:48.965Z,43.50
2023-05-15T23:38:15.599Z,44.10
2023-05-15T23:40:42.266Z,43.90
2023-05-15T23:43:08.998Z,44.20
2023-05-15T23:45:36.101Z,44.10
2023-05-15T23:48:02.911Z,43.70
2023-05-15T23:50:30.953Z,44.90
2023-05-15T23:52:57.658Z,44.90
2023-05-15T23:55:24.360Z,45.00
2023-05-15T23:57:51.035Z,45.50
